BTK7065 WIII-WIBB
Flight info
| Callsign | BTK7065 |
|---|---|
| Flight time | 1h 20m |
| Altitude | 38000 |
| Route | GOMEL T10 OVSET |
| Aircraft | A320/M-SDE3FGHIRWY/LB1 |
Departure
| Time | 2026-05-04 12:51 |
|---|---|
| Airport | Soekarno-Hatta International Airport (WIII) |
Arrival
| Time | 2026-05-04 14:11 |
|---|---|
| Airport | Sultan Syarif Kasim II International Airport / Roesmin Nurjadin AFB (WIBB) |
| Time | Latitude | Longitude | Altitude | Speed | Heading |
|---|---|---|---|---|---|
| 2026-05-04 12:17 | -6.11968 | 106.65235 | 38 ft | 0 kts | 210° |
| 2026-05-04 12:26 | -6.11967 | 106.65235 | 38 ft | 0 kts | 210° |
| 2026-05-04 12:40 | -6.11964 | 106.65237 | 38 ft | 2 kts | 210° |
| 2026-05-04 12:40 | -6.11948 | 106.65247 | 36 ft | 3 kts | 214° |
| 2026-05-04 12:41 | -6.11932 | 106.65259 | 36 ft | 3 kts | 219° |
| 2026-05-04 12:41 | -6.11917 | 106.65273 | 37 ft | 3 kts | 231° |
| 2026-05-04 12:41 | -6.11906 | 106.65289 | 36 ft | 3 kts | 259° |
| 2026-05-04 12:41 | -6.11906 | 106.65302 | 37 ft | 1 kts | 306° |
| 2026-05-04 12:42 | -6.11910 | 106.65307 | 37 ft | 0 kts | 307° |
| 2026-05-04 12:44 | -6.11903 | 106.65298 | 37 ft | 7 kts | 307° |
| 2026-05-04 12:44 | -6.11873 | 106.65259 | 38 ft | 6 kts | 311° |
| 2026-05-04 12:45 | -6.11841 | 106.65236 | 38 ft | 5 kts | 330° |
| 2026-05-04 12:45 | -6.11829 | 106.65230 | 38 ft | 0 kts | 331° |
| 2026-05-04 12:45 | -6.11826 | 106.65228 | 38 ft | 3 kts | 338° |
| 2026-05-04 12:45 | -6.11801 | 106.65220 | 38 ft | 8 kts | 342° |
| 2026-05-04 12:46 | -6.11727 | 106.65288 | 38 ft | 18 kts | 67° |
| 2026-05-04 12:46 | -6.11679 | 106.65410 | 38 ft | 20 kts | 68° |
| 2026-05-04 12:46 | -6.11626 | 106.65543 | 37 ft | 22 kts | 68° |
| 2026-05-04 12:46 | -6.11568 | 106.65689 | 37 ft | 23 kts | 68° |
| 2026-05-04 12:47 | -6.11506 | 106.65844 | 36 ft | 25 kts | 68° |
| 2026-05-04 12:47 | -6.11441 | 106.66006 | 38 ft | 26 kts | 69° |
| 2026-05-04 12:47 | -6.11375 | 106.66175 | 38 ft | 27 kts | 68° |
| 2026-05-04 12:47 | -6.11304 | 106.66351 | 36 ft | 27 kts | 68° |
| 2026-05-04 12:48 | -6.11233 | 106.66530 | 38 ft | 28 kts | 68° |
| 2026-05-04 12:48 | -6.11157 | 106.66718 | 37 ft | 29 kts | 68° |
| 2026-05-04 12:48 | -6.11095 | 106.66872 | 38 ft | 20 kts | 68° |
| 2026-05-04 12:48 | -6.11046 | 106.66956 | 38 ft | 10 kts | 32° |
| 2026-05-04 12:49 | -6.11029 | 106.66966 | 38 ft | 0 kts | 26° |
| 2026-05-04 12:49 | -6.11014 | 106.66970 | 37 ft | 4 kts | 13° |
| 2026-05-04 12:49 | -6.10961 | 106.66948 | 35 ft | 10 kts | 319° |
| 2026-05-04 12:50 | -6.10919 | 106.66896 | 36 ft | 9 kts | 337° |
| 2026-05-04 12:50 | -6.10901 | 106.66859 | 36 ft | 6 kts | 236° |
| 2026-05-04 12:50 | -6.10922 | 106.66824 | 35 ft | 18 kts | 243° |
| 2026-05-04 12:50 | -6.11058 | 106.66482 | 37 ft | 89 kts | 248° |
| 2026-05-04 12:51 | -6.11365 | 106.65712 | 37 ft | 146 kts | 248° |
| 2026-05-04 12:51 | -6.11790 | 106.64633 | 239 ft | 174 kts | 248° |
| 2026-05-04 12:51 | -6.12230 | 106.63502 | 964 ft | 173 kts | 247° |
| 2026-05-04 12:51 | -6.12507 | 106.62294 | 1408 ft | 190 kts | 275° |
| 2026-05-04 12:52 | -6.12201 | 106.60953 | 1729 ft | 211 kts | 290° |
| 2026-05-04 12:52 | -6.11641 | 106.59488 | 2086 ft | 236 kts | 291° |
| 2026-05-04 12:52 | -6.11044 | 106.57856 | 2510 ft | 260 kts | 290° |
| 2026-05-04 12:52 | -6.10427 | 106.56086 | 3197 ft | 272 kts | 289° |
| 2026-05-04 12:53 | -6.09828 | 106.54290 | 4042 ft | 276 kts | 288° |
| 2026-05-04 12:53 | -6.09228 | 106.52437 | 4918 ft | 280 kts | 288° |
| 2026-05-04 12:53 | -6.08615 | 106.50561 | 5773 ft | 284 kts | 291° |
| 2026-05-04 12:53 | -6.07655 | 106.48815 | 6578 ft | 288 kts | 308° |
| 2026-05-04 12:54 | -6.06242 | 106.47377 | 7356 ft | 290 kts | 324° |
| 2026-05-04 12:54 | -6.04537 | 106.46272 | 8149 ft | 293 kts | 329° |
| 2026-05-04 12:54 | -6.02794 | 106.45191 | 8936 ft | 296 kts | 329° |
| 2026-05-04 12:54 | -6.01028 | 106.44094 | 9721 ft | 299 kts | 329° |
| 2026-05-04 12:55 | -5.99262 | 106.42993 | 10252 ft | 311 kts | 329° |
| 2026-05-04 12:55 | -5.97353 | 106.41801 | 10451 ft | 334 kts | 329° |
| 2026-05-04 12:55 | -5.95317 | 106.40529 | 10710 ft | 352 kts | 329° |
| 2026-05-04 12:55 | -5.93209 | 106.39212 | 11258 ft | 359 kts | 329° |
| 2026-05-04 12:56 | -5.91071 | 106.37873 | 11865 ft | 363 kts | 329° |
| 2026-05-04 12:56 | -5.88943 | 106.36537 | 12483 ft | 367 kts | 329° |
| 2026-05-04 12:56 | -5.86762 | 106.35166 | 13111 ft | 370 kts | 329° |
| 2026-05-04 12:56 | -5.84562 | 106.33787 | 13717 ft | 374 kts | 329° |
| 2026-05-04 12:57 | -5.82336 | 106.32392 | 14213 ft | 379 kts | 329° |
| 2026-05-04 12:57 | -5.80088 | 106.30981 | 14753 ft | 382 kts | 329° |
| 2026-05-04 12:57 | -5.77820 | 106.29561 | 15294 ft | 385 kts | 329° |
| 2026-05-04 12:57 | -5.75537 | 106.28136 | 15822 ft | 388 kts | 329° |
| 2026-05-04 12:58 | -5.73273 | 106.26631 | 16345 ft | 392 kts | 323° |
| 2026-05-04 12:58 | -5.71149 | 106.24944 | 16855 ft | 395 kts | 322° |
| 2026-05-04 12:58 | -5.68989 | 106.23216 | 17374 ft | 398 kts | 322° |
| 2026-05-04 12:58 | -5.66814 | 106.21473 | 17887 ft | 401 kts | 322° |
| 2026-05-04 12:59 | -5.64627 | 106.19722 | 18368 ft | 404 kts | 322° |
| 2026-05-04 12:59 | -5.62412 | 106.17951 | 18799 ft | 407 kts | 323° |
| 2026-05-04 12:59 | -5.60216 | 106.16198 | 19217 ft | 410 kts | 323° |
| 2026-05-04 12:59 | -5.57970 | 106.14408 | 19643 ft | 412 kts | 323° |
| 2026-05-04 13:00 | -5.55708 | 106.12607 | 20053 ft | 415 kts | 323° |
| 2026-05-04 13:00 | -5.53430 | 106.10792 | 20469 ft | 418 kts | 323° |
| 2026-05-04 13:00 | -5.51172 | 106.08992 | 20879 ft | 421 kts | 323° |
| 2026-05-04 13:00 | -5.48868 | 106.07152 | 21294 ft | 424 kts | 323° |
| 2026-05-04 13:01 | -5.46539 | 106.05297 | 21695 ft | 426 kts | 323° |
| 2026-05-04 13:01 | -5.44204 | 106.03438 | 22084 ft | 429 kts | 323° |
| 2026-05-04 13:01 | -5.41877 | 106.01588 | 22478 ft | 432 kts | 323° |
| 2026-05-04 13:01 | -5.39507 | 105.99703 | 22854 ft | 435 kts | 323° |
| 2026-05-04 13:02 | -5.37125 | 105.97806 | 23267 ft | 437 kts | 323° |
| 2026-05-04 13:02 | -5.34761 | 105.95923 | 23627 ft | 439 kts | 323° |
| 2026-05-04 13:02 | -5.32358 | 105.94009 | 23953 ft | 441 kts | 323° |
| 2026-05-04 13:02 | -5.29942 | 105.92086 | 24283 ft | 443 kts | 323° |
| 2026-05-04 13:03 | -5.27553 | 105.90187 | 24611 ft | 444 kts | 323° |
| 2026-05-04 13:03 | -5.25119 | 105.88253 | 24940 ft | 446 kts | 323° |
| 2026-05-04 13:03 | -5.22667 | 105.86307 | 25257 ft | 448 kts | 323° |
| 2026-05-04 13:03 | -5.20249 | 105.84388 | 25570 ft | 449 kts | 323° |
| 2026-05-04 13:04 | -5.17773 | 105.82441 | 25884 ft | 451 kts | 324° |
| 2026-05-04 13:04 | -5.15247 | 105.80556 | 26208 ft | 452 kts | 326° |
| 2026-05-04 13:04 | -5.12672 | 105.78721 | 26521 ft | 454 kts | 327° |
| 2026-05-04 13:04 | -5.10095 | 105.76932 | 26804 ft | 455 kts | 327° |
| 2026-05-04 13:05 | -5.07475 | 105.75124 | 27097 ft | 457 kts | 327° |
| 2026-05-04 13:05 | -5.04849 | 105.73299 | 27394 ft | 459 kts | 327° |
| 2026-05-04 13:05 | -5.02213 | 105.71446 | 27689 ft | 461 kts | 326° |
| 2026-05-04 13:05 | -4.99624 | 105.69608 | 27976 ft | 463 kts | 326° |
| 2026-05-04 13:06 | -4.96974 | 105.67716 | 28257 ft | 465 kts | 326° |
| 2026-05-04 13:06 | -4.94329 | 105.65823 | 28526 ft | 467 kts | 326° |
| 2026-05-04 13:06 | -4.91705 | 105.63950 | 28774 ft | 468 kts | 326° |
| 2026-05-04 13:06 | -4.89030 | 105.62048 | 29013 ft | 471 kts | 326° |
| 2026-05-04 13:07 | -4.86342 | 105.60142 | 29257 ft | 473 kts | 326° |
| 2026-05-04 13:07 | -4.83680 | 105.58255 | 29500 ft | 475 kts | 326° |
| 2026-05-04 13:07 | -4.80970 | 105.56332 | 29754 ft | 476 kts | 326° |
| 2026-05-04 13:07 | -4.78254 | 105.54405 | 29986 ft | 478 kts | 326° |
| 2026-05-04 13:08 | -4.75531 | 105.52471 | 30171 ft | 481 kts | 326° |
| 2026-05-04 13:08 | -4.72785 | 105.50519 | 30334 ft | 483 kts | 326° |
| 2026-05-04 13:08 | -4.70067 | 105.48584 | 30584 ft | 483 kts | 326° |
| 2026-05-04 13:08 | -4.67319 | 105.46627 | 30891 ft | 482 kts | 326° |
| 2026-05-04 13:09 | -4.64582 | 105.44682 | 31189 ft | 481 kts | 326° |
| 2026-05-04 13:09 | -4.61887 | 105.42770 | 31515 ft | 479 kts | 326° |
| 2026-05-04 13:09 | -4.59162 | 105.40836 | 31826 ft | 478 kts | 326° |
| 2026-05-04 13:09 | -4.56448 | 105.38908 | 32155 ft | 477 kts | 326° |
| 2026-05-04 13:10 | -4.53742 | 105.36987 | 32484 ft | 475 kts | 326° |
| 2026-05-04 13:10 | -4.51074 | 105.35093 | 32805 ft | 474 kts | 326° |
| 2026-05-04 13:10 | -4.48383 | 105.33184 | 33122 ft | 473 kts | 326° |
| 2026-05-04 13:10 | -4.45696 | 105.31277 | 33454 ft | 471 kts | 326° |
| 2026-05-04 13:11 | -4.43014 | 105.29375 | 33791 ft | 470 kts | 325° |
| 2026-05-04 13:11 | -4.40366 | 105.27496 | 34075 ft | 469 kts | 326° |
| 2026-05-04 13:11 | -4.37695 | 105.25601 | 34339 ft | 469 kts | 326° |
| 2026-05-04 13:11 | -4.35032 | 105.23712 | 34604 ft | 468 kts | 326° |
| 2026-05-04 13:12 | -4.32373 | 105.21825 | 34852 ft | 467 kts | 326° |
| 2026-05-04 13:12 | -4.29747 | 105.19958 | 35124 ft | 466 kts | 326° |
| 2026-05-04 13:12 | -4.27090 | 105.18069 | 35379 ft | 466 kts | 326° |
| 2026-05-04 13:12 | -4.24440 | 105.16189 | 35618 ft | 465 kts | 326° |
| 2026-05-04 13:13 | -4.21796 | 105.14317 | 35855 ft | 465 kts | 326° |
| 2026-05-04 13:13 | -4.19154 | 105.12448 | 36088 ft | 464 kts | 326° |
| 2026-05-04 13:13 | -4.17412 | 105.11218 | 36248 ft | 463 kts | 326° |
| 2026-05-04 13:13 | -4.13914 | 105.08748 | 36554 ft | 463 kts | 326° |
| 2026-05-04 13:14 | -4.11279 | 105.06880 | 36773 ft | 462 kts | 326° |
| 2026-05-04 13:14 | -4.09583 | 105.05574 | 36914 ft | 463 kts | 320° |
| 2026-05-04 13:14 | -4.07223 | 105.03382 | 37115 ft | 463 kts | 318° |
| 2026-05-04 13:14 | -4.04876 | 105.01167 | 37332 ft | 462 kts | 318° |
| 2026-05-04 13:15 | -4.02556 | 104.98984 | 37534 ft | 462 kts | 318° |
| 2026-05-04 13:15 | -4.00202 | 104.96778 | 37736 ft | 462 kts | 318° |
| 2026-05-04 13:15 | -3.97843 | 104.94576 | 37874 ft | 462 kts | 319° |
| 2026-05-04 13:16 | -3.93156 | 104.90209 | 37900 ft | 461 kts | 318° |
| 2026-05-04 13:16 | -3.88458 | 104.85814 | 37901 ft | 460 kts | 318° |
| 2026-05-04 13:17 | -3.83801 | 104.81462 | 37901 ft | 460 kts | 318° |
| 2026-05-04 13:17 | -3.79111 | 104.77070 | 37898 ft | 460 kts | 318° |
| 2026-05-04 13:18 | -3.74446 | 104.72701 | 37904 ft | 460 kts | 318° |
| 2026-05-04 13:18 | -3.69754 | 104.68314 | 37906 ft | 460 kts | 318° |
| 2026-05-04 13:19 | -3.65081 | 104.63948 | 37907 ft | 461 kts | 318° |
| 2026-05-04 13:19 | -3.60408 | 104.59590 | 37911 ft | 460 kts | 318° |
| 2026-05-04 13:20 | -3.55714 | 104.55202 | 37916 ft | 460 kts | 318° |
| 2026-05-04 13:20 | -3.51060 | 104.50849 | 37915 ft | 460 kts | 318° |
| 2026-05-04 13:21 | -3.46369 | 104.46469 | 37917 ft | 460 kts | 318° |
| 2026-05-04 13:21 | -3.41678 | 104.42079 | 37918 ft | 460 kts | 318° |
| 2026-05-04 13:22 | -3.37011 | 104.37720 | 37922 ft | 460 kts | 318° |
| 2026-05-04 13:22 | -3.32345 | 104.33365 | 37920 ft | 460 kts | 318° |
| 2026-05-04 13:23 | -3.27646 | 104.28976 | 37919 ft | 460 kts | 318° |
| 2026-05-04 13:23 | -3.22976 | 104.24611 | 37919 ft | 460 kts | 318° |
| 2026-05-04 13:24 | -3.18283 | 104.20227 | 37914 ft | 460 kts | 318° |
| 2026-05-04 13:24 | -3.13609 | 104.15873 | 37904 ft | 461 kts | 318° |
| 2026-05-04 13:25 | -3.06577 | 104.09307 | 37907 ft | 462 kts | 318° |
| 2026-05-04 13:25 | -3.01859 | 104.04907 | 37912 ft | 462 kts | 318° |
| 2026-05-04 13:26 | -2.97168 | 104.00531 | 37918 ft | 463 kts | 318° |
| 2026-05-04 13:26 | -2.92473 | 103.96148 | 37920 ft | 463 kts | 318° |
| 2026-05-04 13:27 | -2.87745 | 103.91736 | 37922 ft | 463 kts | 318° |
| 2026-05-04 13:27 | -2.83044 | 103.87351 | 37923 ft | 463 kts | 318° |
| 2026-05-04 13:28 | -2.78346 | 103.82971 | 37917 ft | 463 kts | 318° |
| 2026-05-04 13:28 | -2.73609 | 103.78554 | 37917 ft | 464 kts | 318° |
| 2026-05-04 13:29 | -2.68915 | 103.74180 | 37921 ft | 464 kts | 318° |
| 2026-05-04 13:29 | -2.64205 | 103.69787 | 37923 ft | 464 kts | 318° |
| 2026-05-04 13:30 | -2.59470 | 103.65371 | 37933 ft | 464 kts | 318° |
| 2026-05-04 13:30 | -2.54765 | 103.60983 | 37938 ft | 464 kts | 318° |
| 2026-05-04 13:31 | -2.50036 | 103.56582 | 37935 ft | 463 kts | 318° |
| 2026-05-04 13:31 | -2.45308 | 103.52179 | 37934 ft | 463 kts | 317° |
| 2026-05-04 13:32 | -2.40619 | 103.47801 | 37935 ft | 463 kts | 318° |
| 2026-05-04 13:32 | -2.35888 | 103.43393 | 37932 ft | 463 kts | 318° |
| 2026-05-04 13:33 | -2.31193 | 103.39021 | 37934 ft | 463 kts | 318° |
| 2026-05-04 13:33 | -2.26462 | 103.34611 | 37937 ft | 464 kts | 318° |
| 2026-05-04 13:34 | -2.21767 | 103.30214 | 37943 ft | 464 kts | 318° |
| 2026-05-04 13:34 | -2.17034 | 103.25797 | 37936 ft | 464 kts | 319° |
| 2026-05-04 13:35 | -2.09953 | 103.19196 | 37937 ft | 465 kts | 319° |
| 2026-05-04 13:36 | -2.05246 | 103.14795 | 37938 ft | 465 kts | 318° |
| 2026-05-04 13:36 | -2.00508 | 103.10365 | 37944 ft | 464 kts | 318° |
| 2026-05-04 13:37 | -1.95807 | 103.05968 | 37948 ft | 464 kts | 318° |
| 2026-05-04 13:37 | -1.91098 | 103.01586 | 37952 ft | 463 kts | 319° |
| 2026-05-04 13:38 | -1.86370 | 102.97176 | 37951 ft | 463 kts | 318° |
| 2026-05-04 13:38 | -1.81679 | 102.92787 | 37947 ft | 464 kts | 318° |
| 2026-05-04 13:39 | -1.76954 | 102.88370 | 37943 ft | 464 kts | 318° |
| 2026-05-04 13:39 | -1.72256 | 102.83987 | 37942 ft | 464 kts | 318° |
| 2026-05-04 13:40 | -1.67511 | 102.79568 | 37943 ft | 465 kts | 318° |
| 2026-05-04 13:40 | -1.62806 | 102.75179 | 37943 ft | 465 kts | 318° |
| 2026-05-04 13:41 | -1.57972 | 102.70879 | 37942 ft | 463 kts | 326° |
| 2026-05-04 13:41 | -1.52282 | 102.68032 | 37942 ft | 459 kts | 345° |
| 2026-05-04 13:42 | -1.43097 | 102.65339 | 37943 ft | 459 kts | 345° |
| 2026-05-04 13:42 | -1.36954 | 102.63517 | 37942 ft | 460 kts | 345° |
| 2026-05-04 13:43 | -1.30826 | 102.61709 | 37943 ft | 460 kts | 345° |
| 2026-05-04 13:43 | -1.24670 | 102.59898 | 37944 ft | 460 kts | 345° |
| 2026-05-04 13:44 | -1.18522 | 102.58088 | 37945 ft | 460 kts | 345° |
| 2026-05-04 13:44 | -1.12403 | 102.56284 | 37946 ft | 460 kts | 345° |
| 2026-05-04 13:45 | -1.06248 | 102.54471 | 37943 ft | 460 kts | 345° |
| 2026-05-04 13:45 | -1.00083 | 102.52656 | 37943 ft | 461 kts | 345° |
| 2026-05-04 13:46 | -0.93957 | 102.50848 | 37939 ft | 461 kts | 345° |
| 2026-05-04 13:46 | -0.87789 | 102.49027 | 37940 ft | 461 kts | 345° |
| 2026-05-04 13:47 | -0.81649 | 102.47222 | 37940 ft | 461 kts | 345° |
| 2026-05-04 13:47 | -0.75500 | 102.45407 | 37941 ft | 461 kts | 345° |
| 2026-05-04 13:48 | -0.69377 | 102.43609 | 37931 ft | 461 kts | 345° |
| 2026-05-04 13:48 | -0.63193 | 102.41787 | 37928 ft | 461 kts | 345° |
| 2026-05-04 13:49 | -0.57134 | 102.39771 | 37927 ft | 463 kts | 334° |
| 2026-05-04 13:49 | -0.54402 | 102.38058 | 37927 ft | 464 kts | 322° |
| 2026-05-04 13:49 | -0.52025 | 102.35869 | 37927 ft | 465 kts | 316° |
| 2026-05-04 13:50 | -0.47380 | 102.31348 | 37921 ft | 465 kts | 317° |
| 2026-05-04 13:50 | -0.42746 | 102.26866 | 37918 ft | 465 kts | 317° |
| 2026-05-04 13:51 | -0.38092 | 102.22356 | 37921 ft | 466 kts | 316° |
| 2026-05-04 13:51 | -0.33465 | 102.17855 | 37915 ft | 466 kts | 316° |
| 2026-05-04 13:52 | -0.26491 | 102.11089 | 37243 ft | 463 kts | 317° |
| 2026-05-04 13:52 | -0.24160 | 102.08830 | 35702 ft | 472 kts | 317° |
| 2026-05-04 13:53 | -0.21807 | 102.06555 | 34228 ft | 481 kts | 317° |
| 2026-05-04 13:53 | -0.19380 | 102.04211 | 32659 ft | 486 kts | 317° |
| 2026-05-04 13:53 | -0.16927 | 102.01845 | 31054 ft | 492 kts | 317° |
| 2026-05-04 13:54 | -0.12023 | 101.97107 | 28375 ft | 485 kts | 317° |
| 2026-05-04 13:54 | -0.09648 | 101.94809 | 27177 ft | 477 kts | 317° |
| 2026-05-04 13:54 | -0.04975 | 101.90278 | 25519 ft | 448 kts | 317° |
| 2026-05-04 13:55 | -0.02785 | 101.88150 | 24762 ft | 434 kts | 317° |
| 2026-05-04 13:55 | 0.01536 | 101.83955 | 22348 ft | 433 kts | 317° |
| 2026-05-04 13:55 | 0.03692 | 101.81867 | 21280 ft | 427 kts | 317° |
| 2026-05-04 13:56 | 0.05817 | 101.79809 | 20330 ft | 421 kts | 317° |
| 2026-05-04 13:56 | 0.07879 | 101.77797 | 19387 ft | 415 kts | 314° |
| 2026-05-04 13:56 | 0.10671 | 101.72881 | 17470 ft | 405 kts | 294° |
| 2026-05-04 13:57 | 0.11767 | 101.70304 | 16489 ft | 399 kts | 293° |
| 2026-05-04 13:57 | 0.12832 | 101.67768 | 15585 ft | 393 kts | 293° |
| 2026-05-04 13:58 | 0.15908 | 101.60422 | 12981 ft | 374 kts | 293° |
| 2026-05-04 13:58 | 0.17906 | 101.55708 | 11134 ft | 361 kts | 293° |
| 2026-05-04 13:58 | 0.18833 | 101.53439 | 10544 ft | 347 kts | 288° |
| 2026-05-04 13:59 | 0.19212 | 101.51152 | 10420 ft | 320 kts | 273° |
| 2026-05-04 13:59 | 0.19324 | 101.48994 | 10153 ft | 303 kts | 273° |
| 2026-05-04 13:59 | 0.19215 | 101.44905 | 8853 ft | 297 kts | 251° |
| 2026-05-04 14:00 | 0.18151 | 101.43138 | 8077 ft | 298 kts | 225° |
| 2026-05-04 14:00 | 0.14461 | 101.41684 | 7130 ft | 277 kts | 186° |
| 2026-05-04 14:00 | 0.12575 | 101.41512 | 6707 ft | 269 kts | 185° |
| 2026-05-04 14:01 | 0.10711 | 101.41356 | 6113 ft | 268 kts | 185° |
| 2026-05-04 14:01 | 0.08862 | 101.41293 | 5500 ft | 265 kts | 174° |
| 2026-05-04 14:01 | 0.05644 | 101.42900 | 4305 ft | 263 kts | 132° |
| 2026-05-04 14:02 | 0.04681 | 101.44409 | 3706 ft | 261 kts | 111° |
| 2026-05-04 14:02 | 0.04310 | 101.46161 | 3197 ft | 255 kts | 90° |
| 2026-05-04 14:02 | 0.04576 | 101.47896 | 3085 ft | 255 kts | 70° |
| 2026-05-04 14:02 | 0.05409 | 101.49462 | 3027 ft | 256 kts | 50° |
| 2026-05-04 14:03 | 0.06708 | 101.50628 | 3008 ft | 254 kts | 30° |
| 2026-05-04 14:03 | 0.08320 | 101.51279 | 2998 ft | 243 kts | 10° |
| 2026-05-04 14:03 | 0.09940 | 101.51352 | 2996 ft | 225 kts | 352° |
| 2026-05-04 14:03 | 0.11419 | 101.50943 | 3001 ft | 220 kts | 335° |
| 2026-05-04 14:04 | 0.13678 | 101.48947 | 3002 ft | 220 kts | 302° |
| 2026-05-04 14:04 | 0.14402 | 101.47618 | 3003 ft | 221 kts | 296° |
| 2026-05-04 14:04 | 0.15055 | 101.46224 | 3003 ft | 221 kts | 295° |
| 2026-05-04 14:05 | 0.17117 | 101.44064 | 3002 ft | 219 kts | 336° |
| 2026-05-04 14:05 | 0.18077 | 101.43749 | 3004 ft | 219 kts | 350° |
| 2026-05-04 14:05 | 0.20090 | 101.43709 | 3004 ft | 219 kts | 1° |
| 2026-05-04 14:06 | 0.21619 | 101.43754 | 3005 ft | 219 kts | 1° |
| 2026-05-04 14:06 | 0.23148 | 101.43798 | 3005 ft | 220 kts | 1° |
| 2026-05-04 14:06 | 0.24160 | 101.43827 | 3005 ft | 218 kts | 1° |
| 2026-05-04 14:06 | 0.25633 | 101.43869 | 3002 ft | 205 kts | 1° |
| 2026-05-04 14:07 | 0.27484 | 101.43921 | 3013 ft | 195 kts | 1° |
| 2026-05-04 14:07 | 0.28373 | 101.43947 | 3012 ft | 183 kts | 1° |
| 2026-05-04 14:07 | 0.29602 | 101.43982 | 2870 ft | 175 kts | 1° |
| 2026-05-04 14:07 | 0.31193 | 101.44027 | 2610 ft | 170 kts | 1° |
| 2026-05-04 14:08 | 0.31977 | 101.44049 | 2474 ft | 168 kts | 2° |
| 2026-05-04 14:08 | 0.33140 | 101.44082 | 2271 ft | 165 kts | 2° |
| 2026-05-04 14:08 | 0.34239 | 101.44114 | 2069 ft | 151 kts | 2° |
| 2026-05-04 14:08 | 0.35262 | 101.44143 | 1873 ft | 143 kts | 2° |
| 2026-05-04 14:09 | 0.37219 | 101.44199 | 1513 ft | 140 kts | 2° |
| 2026-05-04 14:09 | 0.38197 | 101.44226 | 1329 ft | 140 kts | 2° |
| 2026-05-04 14:10 | 0.40139 | 101.44282 | 978 ft | 140 kts | 2° |
| 2026-05-04 14:10 | 0.41117 | 101.44310 | 826 ft | 141 kts | 1° |
| 2026-05-04 14:10 | 0.42106 | 101.44338 | 663 ft | 142 kts | 1° |
| 2026-05-04 14:10 | 0.43093 | 101.44373 | 471 ft | 142 kts | 1° |
| 2026-05-04 14:11 | 0.44076 | 101.44397 | 290 ft | 142 kts | 359° |
| 2026-05-04 14:11 | 0.45897 | 101.44446 | 126 ft | 98 kts | 1° |
| 2026-05-04 14:11 | 0.46282 | 101.44457 | 128 ft | 27 kts | 1° |
| 2026-05-04 14:12 | 0.46375 | 101.44469 | 125 ft | 9 kts | 47° |
| 2026-05-04 14:12 | 0.46384 | 101.44508 | 126 ft | 5 kts | 83° |
| 2026-05-04 14:12 | 0.46378 | 101.44576 | 127 ft | 13 kts | 110° |
| 2026-05-04 14:13 | 0.46366 | 101.44654 | 124 ft | 8 kts | 91° |
| 2026-05-04 14:13 | 0.46366 | 101.44683 | 125 ft | 0 kts | 92° |